sensor_id;sensor_type;location;lat;lon;timestamp;P1;durP1;ratioP1;P2;durP2;ratioP2
59828;SDS011;45708;51.848;107.620;2022-11-20T00:02:40;23.93;;;13.93;;
59828;SDS011;45708;51.848;107.620;2022-11-20T00:07:41;20.60;;;12.60;;
59828;SDS011;45708;51.848;107.620;2022-11-20T00:12:43;37.63;;;15.00;;
59828;SDS011;45708;51.848;107.620;2022-11-20T00:17:44;10.47;;;5.67;;
59828;SDS011;45708;51.848;107.620;2022-11-20T00:22:44;16.63;;;10.73;;
59828;SDS011;45708;51.848;107.620;2022-11-20T00:27:45;30.50;;;10.50;;
59828;SDS011;45708;51.848;107.620;2022-11-20T00:32:46;8.13;;;6.70;;
59828;SDS011;45708;51.848;107.620;2022-11-20T00:37:48;23.53;;;13.20;;
59828;SDS011;45708;51.848;107.620;2022-11-20T00:42:49;26.80;;;13.50;;
59828;SDS011;45708;51.848;107.620;2022-11-20T00:47:50;6.33;;;4.17;;
59828;SDS011;45708;51.848;107.620;2022-11-20T00:52:51;10.13;;;7.17;;
59828;SDS011;45708;51.848;107.620;2022-11-20T00:57:52;36.87;;;17.67;;
59828;SDS011;45708;51.848;107.620;2022-11-20T01:02:55;41.00;;;17.13;;
59828;SDS011;45708;51.848;107.620;2022-11-20T01:07:56;42.03;;;19.13;;
59828;SDS011;45708;51.848;107.620;2022-11-20T01:12:57;20.20;;;12.43;;
59828;SDS011;45708;51.848;107.620;2022-11-20T01:17:58;32.40;;;15.20;;
59828;SDS011;45708;51.848;107.620;2022-11-20T01:22:59;31.20;;;17.13;;
59828;SDS011;45708;51.848;107.620;2022-11-20T01:28:00;28.73;;;16.50;;
59828;SDS011;45708;51.848;107.620;2022-11-20T01:33:02;15.30;;;7.97;;
59828;SDS011;45708;51.848;107.620;2022-11-20T01:38:03;12.30;;;10.70;;
59828;SDS011;45708;51.848;107.620;2022-11-20T01:43:17;26.20;;;19.07;;
59828;SDS011;45708;51.848;107.620;2022-11-20T01:48:19;32.17;;;13.03;;
59828;SDS011;45708;51.848;107.620;2022-11-20T01:53:24;46.83;;;18.33;;
59828;SDS011;45708;51.848;107.620;2022-11-20T01:58:30;25.97;;;9.03;;
59828;SDS011;45708;51.848;107.620;2022-11-20T02:03:33;10.63;;;6.87;;
59828;SDS011;45708;51.848;107.620;2022-11-20T02:08:34;10.60;;;6.17;;
59828;SDS011;45708;51.848;107.620;2022-11-20T02:13:36;14.60;;;9.67;;
59828;SDS011;45708;51.848;107.620;2022-11-20T02:18:38;14.33;;;7.10;;
59828;SDS011;45708;51.848;107.620;2022-11-20T02:24:02;8.67;;;4.60;;
59828;SDS011;45708;51.848;107.620;2022-11-20T02:29:06;35.67;;;17.60;;
59828;SDS011;45708;51.848;107.620;2022-11-20T02:34:08;22.70;;;10.47;;
59828;SDS011;45708;51.848;107.620;2022-11-20T02:39:10;9.43;;;5.30;;
59828;SDS011;45708;51.848;107.620;2022-11-20T02:44:15;10.97;;;5.90;;
59828;SDS011;45708;51.848;107.620;2022-11-20T02:49:15;14.17;;;9.90;;
59828;SDS011;45708;51.848;107.620;2022-11-20T02:54:17;21.00;;;10.30;;
59828;SDS011;45708;51.848;107.620;2022-11-20T02:59:18;20.87;;;9.43;;
59828;SDS011;45708;51.848;107.620;2022-11-20T03:04:19;18.83;;;9.80;;
59828;SDS011;45708;51.848;107.620;2022-11-20T03:09:20;10.87;;;6.20;;
59828;SDS011;45708;51.848;107.620;2022-11-20T03:14:22;9.90;;;4.20;;
59828;SDS011;45708;51.848;107.620;2022-11-20T03:19:23;4.60;;;3.87;;
59828;SDS011;45708;51.848;107.620;2022-11-20T03:24:25;3.97;;;3.60;;
59828;SDS011;45708;51.848;107.620;2022-11-20T03:29:28;16.43;;;10.43;;
59828;SDS011;45708;51.848;107.620;2022-11-20T03:34:29;17.67;;;8.83;;
59828;SDS011;45708;51.848;107.620;2022-11-20T03:39:31;13.37;;;9.70;;
59828;SDS011;45708;51.848;107.620;2022-11-20T03:44:32;19.43;;;11.03;;
59828;SDS011;45708;51.848;107.620;2022-11-20T03:49:34;14.23;;;6.83;;
59828;SDS011;45708;51.848;107.620;2022-11-20T03:54:36;8.10;;;5.43;;
59828;SDS011;45708;51.848;107.620;2022-11-20T03:59:37;6.23;;;5.73;;
59828;SDS011;45708;51.848;107.620;2022-11-20T04:04:38;13.73;;;4.17;;
59828;SDS011;45708;51.848;107.620;2022-11-20T04:09:39;10.63;;;4.70;;
59828;SDS011;45708;51.848;107.620;2022-11-20T04:14:39;18.90;;;7.87;;
59828;SDS011;45708;51.848;107.620;2022-11-20T04:19:40;8.30;;;4.80;;
59828;SDS011;45708;51.848;107.620;2022-11-20T04:24:41;12.60;;;4.77;;
59828;SDS011;45708;51.848;107.620;2022-11-20T04:29:42;4.10;;;3.70;;
59828;SDS011;45708;51.848;107.620;2022-11-20T04:34:44;5.23;;;2.70;;
59828;SDS011;45708;51.848;107.620;2022-11-20T04:39:45;5.23;;;4.10;;
59828;SDS011;45708;51.848;107.620;2022-11-20T04:44:47;7.43;;;2.73;;
59828;SDS011;45708;51.848;107.620;2022-11-20T04:49:48;8.90;;;5.67;;
59828;SDS011;45708;51.848;107.620;2022-11-20T04:54:49;12.00;;;5.37;;
59828;SDS011;45708;51.848;107.620;2022-11-20T04:59:50;7.27;;;2.23;;
59828;SDS011;45708;51.848;107.620;2022-11-20T05:04:52;16.87;;;4.63;;
59828;SDS011;45708;51.848;107.620;2022-11-20T05:09:52;7.93;;;3.63;;
59828;SDS011;45708;51.848;107.620;2022-11-20T05:14:53;4.73;;;2.87;;
59828;SDS011;45708;51.848;107.620;2022-11-20T05:19:55;7.07;;;3.53;;
59828;SDS011;45708;51.848;107.620;2022-11-20T05:24:56;4.40;;;2.40;;
59828;SDS011;45708;51.848;107.620;2022-11-20T05:29:59;5.93;;;4.97;;
59828;SDS011;45708;51.848;107.620;2022-11-20T05:35:00;3.53;;;3.07;;
59828;SDS011;45708;51.848;107.620;2022-11-20T05:40:01;13.10;;;6.13;;
59828;SDS011;45708;51.848;107.620;2022-11-20T05:45:03;8.67;;;5.07;;
59828;SDS011;45708;51.848;107.620;2022-11-20T05:50:05;6.67;;;3.10;;
59828;SDS011;45708;51.848;107.620;2022-11-20T05:55:07;11.10;;;6.13;;
59828;SDS011;45708;51.848;107.620;2022-11-20T06:00:08;9.67;;;2.70;;
59828;SDS011;45708;51.848;107.620;2022-11-20T06:05:10;5.57;;;2.63;;
59828;SDS011;45708;51.848;107.620;2022-11-20T06:10:11;5.50;;;2.90;;
59828;SDS011;45708;51.848;107.620;2022-11-20T06:15:12;7.97;;;4.07;;
59828;SDS011;45708;51.848;107.620;2022-11-20T06:20:13;11.20;;;5.40;;
59828;SDS011;45708;51.848;107.620;2022-11-20T06:25:14;6.90;;;5.07;;
59828;SDS011;45708;51.848;107.620;2022-11-20T06:30:15;5.10;;;2.53;;
59828;SDS011;45708;51.848;107.620;2022-11-20T06:35:16;7.20;;;5.03;;
59828;SDS011;45708;51.848;107.620;2022-11-20T06:40:17;10.50;;;3.83;;
59828;SDS011;45708;51.848;107.620;2022-11-20T06:45:18;4.67;;;2.20;;
59828;SDS011;45708;51.848;107.620;2022-11-20T06:50:18;9.43;;;4.20;;
59828;SDS011;45708;51.848;107.620;2022-11-20T06:55:19;11.67;;;5.00;;
59828;SDS011;45708;51.848;107.620;2022-11-20T07:00:20;12.10;;;5.83;;
59828;SDS011;45708;51.848;107.620;2022-11-20T07:05:21;14.27;;;5.40;;
59828;SDS011;45708;51.848;107.620;2022-11-20T07:10:22;6.80;;;4.63;;
59828;SDS011;45708;51.848;107.620;2022-11-20T07:15:24;10.40;;;5.43;;
59828;SDS011;45708;51.848;107.620;2022-11-20T07:20:25;21.00;;;7.17;;
59828;SDS011;45708;51.848;107.620;2022-11-20T07:25:27;7.07;;;3.73;;
59828;SDS011;45708;51.848;107.620;2022-11-20T07:30:29;4.87;;;3.67;;
59828;SDS011;45708;51.848;107.620;2022-11-20T07:35:30;6.13;;;3.87;;
59828;SDS011;45708;51.848;107.620;2022-11-20T07:40:31;11.53;;;3.90;;
59828;SDS011;45708;51.848;107.620;2022-11-20T07:45:32;12.30;;;5.80;;
59828;SDS011;45708;51.848;107.620;2022-11-20T07:50:33;10.90;;;4.80;;
59828;SDS011;45708;51.848;107.620;2022-11-20T07:55:34;13.53;;;4.73;;
59828;SDS011;45708;51.848;107.620;2022-11-20T08:00:35;6.47;;;3.53;;
59828;SDS011;45708;51.848;107.620;2022-11-20T08:05:36;3.53;;;2.77;;
59828;SDS011;45708;51.848;107.620;2022-11-20T08:10:37;7.37;;;3.67;;
59828;SDS011;45708;51.848;107.620;2022-11-20T08:15:38;6.67;;;2.73;;
59828;SDS011;45708;51.848;107.620;2022-11-20T08:20:40;1.10;;;0.97;;
59828;SDS011;45708;51.848;107.620;2022-11-20T08:25:41;6.73;;;3.33;;
59828;SDS011;45708;51.848;107.620;2022-11-20T08:30:42;7.70;;;5.10;;
59828;SDS011;45708;51.848;107.620;2022-11-20T08:35:44;15.77;;;6.33;;
59828;SDS011;45708;51.848;107.620;2022-11-20T08:40:45;12.63;;;5.60;;
59828;SDS011;45708;51.848;107.620;2022-11-20T08:45:50;15.47;;;6.93;;
59828;SDS011;45708;51.848;107.620;2022-11-20T08:50:51;10.67;;;4.83;;
59828;SDS011;45708;51.848;107.620;2022-11-20T08:55:52;11.03;;;4.50;;
59828;SDS011;45708;51.848;107.620;2022-11-20T09:00:54;12.83;;;8.70;;
59828;SDS011;45708;51.848;107.620;2022-11-20T09:05:58;22.83;;;10.67;;
59828;SDS011;45708;51.848;107.620;2022-11-20T09:11:00;42.23;;;15.07;;
59828;SDS011;45708;51.848;107.620;2022-11-20T09:16:03;19.43;;;7.90;;
59828;SDS011;45708;51.848;107.620;2022-11-20T09:21:09;6.77;;;5.97;;
59828;SDS011;45708;51.848;107.620;2022-11-20T09:26:11;5.30;;;4.93;;
59828;SDS011;45708;51.848;107.620;2022-11-20T09:31:21;36.00;;;14.53;;
59828;SDS011;45708;51.848;107.620;2022-11-20T09:36:24;27.20;;;14.30;;
59828;SDS011;45708;51.848;107.620;2022-11-20T09:52:34;88.20;;;40.67;;
59828;SDS011;45708;51.848;107.620;2022-11-20T09:57:57;55.20;;;25.60;;
59828;SDS011;45708;51.848;107.620;2022-11-20T10:08:19;96.33;;;41.20;;
59828;SDS011;45708;51.848;107.620;2022-11-20T10:18:54;57.80;;;29.77;;
59828;SDS011;45708;51.848;107.620;2022-11-20T10:29:34;67.82;;;35.38;;
59828;SDS011;45708;51.848;107.620;2022-11-20T10:34:46;70.83;;;31.07;;
59828;SDS011;45708;51.848;107.620;2022-11-20T10:50:25;79.03;;;30.87;;
59828;SDS011;45708;51.848;107.620;2022-11-20T10:55:42;80.47;;;36.80;;
59828;SDS011;45708;51.848;107.620;2022-11-20T11:00:50;75.80;;;36.80;;
59828;SDS011;45708;51.848;107.620;2022-11-20T11:06:06;70.30;;;33.37;;
59828;SDS011;45708;51.848;107.620;2022-11-20T11:11:24;74.57;;;39.10;;
59828;SDS011;45708;51.848;107.620;2022-11-20T11:16:28;88.47;;;38.83;;
59828;SDS011;45708;51.848;107.620;2022-11-20T11:21:29;73.53;;;37.23;;
59828;SDS011;45708;51.848;107.620;2022-11-20T11:26:31;83.97;;;32.00;;
59828;SDS011;45708;51.848;107.620;2022-11-20T11:31:33;96.57;;;43.07;;
59828;SDS011;45708;51.848;107.620;2022-11-20T11:36:35;82.00;;;34.83;;
59828;SDS011;45708;51.848;107.620;2022-11-20T11:41:36;70.37;;;33.57;;
59828;SDS011;45708;51.848;107.620;2022-11-20T11:46:37;81.70;;;35.60;;
59828;SDS011;45708;51.848;107.620;2022-11-20T11:57:00;57.00;;;26.37;;
59828;SDS011;45708;51.848;107.620;2022-11-20T12:02:15;74.10;;;33.05;;
59828;SDS011;45708;51.848;107.620;2022-11-20T12:07:39;55.08;;;24.35;;
59828;SDS011;45708;51.848;107.620;2022-11-20T12:12:44;62.73;;;30.23;;
59828;SDS011;45708;51.848;107.620;2022-11-20T12:18:01;58.17;;;23.07;;
59828;SDS011;45708;51.848;107.620;2022-11-20T12:23:27;51.23;;;20.17;;
59828;SDS011;45708;51.848;107.620;2022-11-20T12:34:12;74.03;;;36.17;;
59828;SDS011;45708;51.848;107.620;2022-11-20T13:00:21;63.57;;;26.97;;
59828;SDS011;45708;51.848;107.620;2022-11-20T13:06:10;63.03;;;30.07;;
59828;SDS011;45708;51.848;107.620;2022-11-20T13:10:51;65.50;;;27.93;;
59828;SDS011;45708;51.848;107.620;2022-11-20T13:16:07;68.33;;;30.60;;
59828;SDS011;45708;51.848;107.620;2022-11-20T13:21:41;54.73;;;27.87;;
59828;SDS011;45708;51.848;107.620;2022-11-20T13:26:43;69.17;;;30.57;;
59828;SDS011;45708;51.848;107.620;2022-11-20T13:31:45;101.77;;;34.10;;
59828;SDS011;45708;51.848;107.620;2022-11-20T13:36:49;77.53;;;27.87;;
59828;SDS011;45708;51.848;107.620;2022-11-20T13:47:23;84.00;;;37.00;;
59828;SDS011;45708;51.848;107.620;2022-11-20T13:57:54;21.30;;;11.80;;
59828;SDS011;45708;51.848;107.620;2022-11-20T14:08:23;103.63;;;43.50;;
59828;SDS011;45708;51.848;107.620;2022-11-20T14:13:29;105.83;;;44.03;;
59828;SDS011;45708;51.848;107.620;2022-11-20T14:18:30;69.33;;;30.77;;
59828;SDS011;45708;51.848;107.620;2022-11-20T14:23:31;55.47;;;26.73;;
59828;SDS011;45708;51.848;107.620;2022-11-20T14:28:32;113.97;;;40.53;;
59828;SDS011;45708;51.848;107.620;2022-11-20T14:33:33;23.53;;;18.03;;
59828;SDS011;45708;51.848;107.620;2022-11-20T14:38:34;34.27;;;18.17;;
59828;SDS011;45708;51.848;107.620;2022-11-20T14:43:36;29.77;;;19.23;;
59828;SDS011;45708;51.848;107.620;2022-11-20T14:48:47;12.17;;;8.90;;
59828;SDS011;45708;51.848;107.620;2022-11-20T14:53:50;15.93;;;13.77;;
59828;SDS011;45708;51.848;107.620;2022-11-20T14:58:55;37.40;;;19.17;;
59828;SDS011;45708;51.848;107.620;2022-11-20T15:04:09;40.97;;;20.10;;
59828;SDS011;45708;51.848;107.620;2022-11-20T15:09:14;14.23;;;11.10;;
59828;SDS011;45708;51.848;107.620;2022-11-20T15:14:15;30.97;;;14.87;;
59828;SDS011;45708;51.848;107.620;2022-11-20T15:19:17;30.83;;;18.20;;
59828;SDS011;45708;51.848;107.620;2022-11-20T15:24:21;27.33;;;14.77;;
59828;SDS011;45708;51.848;107.620;2022-11-20T15:29:22;55.33;;;23.93;;
59828;SDS011;45708;51.848;107.620;2022-11-20T15:34:26;54.47;;;27.73;;
59828;SDS011;45708;51.848;107.620;2022-11-20T15:39:28;63.63;;;31.73;;
59828;SDS011;45708;51.848;107.620;2022-11-20T15:44:29;0.60;;;0.60;;
59828;SDS011;45708;51.848;107.620;2022-11-20T15:49:30;54.00;;;29.73;;
59828;SDS011;45708;51.848;107.620;2022-11-20T15:54:31;4.00;;;2.30;;
59828;SDS011;45708;51.848;107.620;2022-11-20T15:59:32;48.70;;;22.87;;
59828;SDS011;45708;51.848;107.620;2022-11-20T16:04:34;18.20;;;11.57;;
59828;SDS011;45708;51.848;107.620;2022-11-20T16:09:35;34.20;;;19.07;;
59828;SDS011;45708;51.848;107.620;2022-11-20T16:14:35;42.60;;;20.60;;
59828;SDS011;45708;51.848;107.620;2022-11-20T16:19:36;38.03;;;19.47;;
59828;SDS011;45708;51.848;107.620;2022-11-20T16:24:37;28.03;;;10.47;;
59828;SDS011;45708;51.848;107.620;2022-11-20T16:29:38;18.53;;;9.47;;
59828;SDS011;45708;51.848;107.620;2022-11-20T16:34:39;32.50;;;13.27;;
59828;SDS011;45708;51.848;107.620;2022-11-20T16:39:40;58.97;;;18.50;;
59828;SDS011;45708;51.848;107.620;2022-11-20T16:44:41;64.90;;;24.50;;
59828;SDS011;45708;51.848;107.620;2022-11-20T16:49:46;64.10;;;24.43;;
59828;SDS011;45708;51.848;107.620;2022-11-20T16:54:47;50.47;;;21.13;;
59828;SDS011;45708;51.848;107.620;2022-11-20T16:59:47;32.03;;;20.77;;
59828;SDS011;45708;51.848;107.620;2022-11-20T17:04:49;50.90;;;22.57;;
59828;SDS011;45708;51.848;107.620;2022-11-20T17:09:50;42.20;;;16.67;;
59828;SDS011;45708;51.848;107.620;2022-11-20T17:14:51;50.60;;;23.73;;
59828;SDS011;45708;51.848;107.620;2022-11-20T17:19:53;9.10;;;6.57;;
59828;SDS011;45708;51.848;107.620;2022-11-20T17:24:54;20.77;;;13.80;;
59828;SDS011;45708;51.848;107.620;2022-11-20T17:29:55;52.80;;;23.63;;
59828;SDS011;45708;51.848;107.620;2022-11-20T17:34:55;107.10;;;40.17;;
59828;SDS011;45708;51.848;107.620;2022-11-20T17:39:56;70.37;;;30.37;;
59828;SDS011;45708;51.848;107.620;2022-11-20T17:44:57;33.43;;;16.23;;
59828;SDS011;45708;51.848;107.620;2022-11-20T17:49:58;20.63;;;11.93;;
59828;SDS011;45708;51.848;107.620;2022-11-20T17:54:58;28.20;;;13.50;;
59828;SDS011;45708;51.848;107.620;2022-11-20T17:59:59;58.03;;;28.23;;
59828;SDS011;45708;51.848;107.620;2022-11-20T18:05:00;86.17;;;35.60;;
59828;SDS011;45708;51.848;107.620;2022-11-20T18:10:01;87.70;;;40.33;;
59828;SDS011;45708;51.848;107.620;2022-11-20T18:15:02;42.30;;;25.50;;
59828;SDS011;45708;51.848;107.620;2022-11-20T18:20:03;56.07;;;21.03;;
59828;SDS011;45708;51.848;107.620;2022-11-20T18:25:04;74.47;;;32.50;;
59828;SDS011;45708;51.848;107.620;2022-11-20T18:30:06;62.57;;;24.83;;
59828;SDS011;45708;51.848;107.620;2022-11-20T18:35:07;33.40;;;20.77;;
59828;SDS011;45708;51.848;107.620;2022-11-20T18:40:08;36.93;;;22.20;;
59828;SDS011;45708;51.848;107.620;2022-11-20T18:45:10;29.47;;;15.93;;
59828;SDS011;45708;51.848;107.620;2022-11-20T18:50:11;18.93;;;10.60;;
59828;SDS011;45708;51.848;107.620;2022-11-20T18:55:11;12.80;;;7.33;;
59828;SDS011;45708;51.848;107.620;2022-11-20T19:00:13;21.00;;;10.33;;
59828;SDS011;45708;51.848;107.620;2022-11-20T19:05:13;24.00;;;14.47;;
59828;SDS011;45708;51.848;107.620;2022-11-20T19:10:16;69.40;;;27.47;;
59828;SDS011;45708;51.848;107.620;2022-11-20T19:15:18;39.30;;;14.03;;
59828;SDS011;45708;51.848;107.620;2022-11-20T19:20:19;51.73;;;23.47;;
59828;SDS011;45708;51.848;107.620;2022-11-20T19:25:19;7.73;;;4.40;;
59828;SDS011;45708;51.848;107.620;2022-11-20T19:30:20;40.07;;;20.80;;
59828;SDS011;45708;51.848;107.620;2022-11-20T19:35:21;27.97;;;15.77;;
59828;SDS011;45708;51.848;107.620;2022-11-20T19:40:22;13.50;;;10.60;;
59828;SDS011;45708;51.848;107.620;2022-11-20T19:45:23;32.57;;;16.30;;
59828;SDS011;45708;51.848;107.620;2022-11-20T19:50:23;21.17;;;8.60;;
59828;SDS011;45708;51.848;107.620;2022-11-20T19:55:24;29.67;;;14.50;;
59828;SDS011;45708;51.848;107.620;2022-11-20T20:00:25;45.73;;;19.77;;
59828;SDS011;45708;51.848;107.620;2022-11-20T20:05:26;26.87;;;14.00;;
59828;SDS011;45708;51.848;107.620;2022-11-20T20:10:27;17.97;;;9.00;;
59828;SDS011;45708;51.848;107.620;2022-11-20T20:15:28;75.30;;;28.80;;
59828;SDS011;45708;51.848;107.620;2022-11-20T20:20:29;15.37;;;11.10;;
59828;SDS011;45708;51.848;107.620;2022-11-20T20:25:29;44.07;;;17.23;;
59828;SDS011;45708;51.848;107.620;2022-11-20T20:30:30;51.73;;;24.00;;
59828;SDS011;45708;51.848;107.620;2022-11-20T20:35:31;59.97;;;24.20;;
59828;SDS011;45708;51.848;107.620;2022-11-20T20:40:32;35.97;;;15.10;;
59828;SDS011;45708;51.848;107.620;2022-11-20T20:45:33;23.53;;;11.00;;
59828;SDS011;45708;51.848;107.620;2022-11-20T20:50:33;24.57;;;10.47;;
59828;SDS011;45708;51.848;107.620;2022-11-20T20:55:34;17.17;;;11.07;;
59828;SDS011;45708;51.848;107.620;2022-11-20T21:00:36;35.33;;;15.63;;
59828;SDS011;45708;51.848;107.620;2022-11-20T21:05:38;18.17;;;7.67;;
59828;SDS011;45708;51.848;107.620;2022-11-20T21:10:39;1.97;;;1.87;;
59828;SDS011;45708;51.848;107.620;2022-11-20T21:15:40;13.00;;;11.80;;
59828;SDS011;45708;51.848;107.620;2022-11-20T21:20:43;27.50;;;11.33;;
59828;SDS011;45708;51.848;107.620;2022-11-20T21:25:45;22.93;;;14.00;;
59828;SDS011;45708;51.848;107.620;2022-11-20T21:30:46;26.27;;;10.07;;
59828;SDS011;45708;51.848;107.620;2022-11-20T21:35:48;37.70;;;19.23;;
59828;SDS011;45708;51.848;107.620;2022-11-20T21:40:49;21.73;;;14.17;;
59828;SDS011;45708;51.848;107.620;2022-11-20T21:45:50;42.17;;;17.70;;
59828;SDS011;45708;51.848;107.620;2022-11-20T21:50:51;46.63;;;20.97;;
59828;SDS011;45708;51.848;107.620;2022-11-20T21:55:52;34.90;;;16.90;;
59828;SDS011;45708;51.848;107.620;2022-11-20T22:00:54;38.10;;;18.40;;
59828;SDS011;45708;51.848;107.620;2022-11-20T22:05:55;35.57;;;14.73;;
59828;SDS011;45708;51.848;107.620;2022-11-20T22:11:01;68.13;;;29.13;;
59828;SDS011;45708;51.848;107.620;2022-11-20T22:16:13;75.13;;;31.17;;
59828;SDS011;45708;51.848;107.620;2022-11-20T22:21:14;38.27;;;14.73;;
59828;SDS011;45708;51.848;107.620;2022-11-20T22:26:17;55.03;;;24.13;;
59828;SDS011;45708;51.848;107.620;2022-11-20T22:31:21;21.23;;;11.17;;
59828;SDS011;45708;51.848;107.620;2022-11-20T22:36:24;30.37;;;12.70;;
59828;SDS011;45708;51.848;107.620;2022-11-20T22:41:26;44.43;;;20.37;;
59828;SDS011;45708;51.848;107.620;2022-11-20T22:46:29;42.57;;;20.53;;
59828;SDS011;45708;51.848;107.620;2022-11-20T22:51:33;31.63;;;15.87;;
59828;SDS011;45708;51.848;107.620;2022-11-20T22:56:36;11.53;;;8.40;;
59828;SDS011;45708;51.848;107.620;2022-11-20T23:01:37;39.23;;;17.37;;
59828;SDS011;45708;51.848;107.620;2022-11-20T23:06:39;64.77;;;30.90;;
59828;SDS011;45708;51.848;107.620;2022-11-20T23:11:41;71.23;;;28.37;;
59828;SDS011;45708;51.848;107.620;2022-11-20T23:16:42;75.50;;;29.33;;
59828;SDS011;45708;51.848;107.620;2022-11-20T23:21:44;114.00;;;43.80;;
59828;SDS011;45708;51.848;107.620;2022-11-20T23:26:45;120.73;;;46.97;;
59828;SDS011;45708;51.848;107.620;2022-11-20T23:31:46;32.63;;;17.00;;
59828;SDS011;45708;51.848;107.620;2022-11-20T23:36:49;70.67;;;25.00;;
59828;SDS011;45708;51.848;107.620;2022-11-20T23:41:51;68.23;;;28.87;;
59828;SDS011;45708;51.848;107.620;2022-11-20T23:46:52;25.30;;;10.50;;
59828;SDS011;45708;51.848;107.620;2022-11-20T23:51:53;28.63;;;14.63;;
59828;SDS011;45708;51.848;107.620;2022-11-20T23:56:55;25.10;;;12.97;;
